ROYN/OGN METAR and TAF weather

Enter ICAO airport designator
Station Type Date Time Source
ROYN METAR 2020/01/23 15:00 UTC NOAA

ROYN 231500Z AUTO 14006KT 9999 NCD 22/19 Q1020


Station Type Date Time Source
ROYN Decoded METAR 2020/01/23 15:00 UTC NOAA

Yonaguni Airport, Japan (ROYN) 24-28N 122-59E 19M
Jan 23, 2020 - 10:00 AM EST / 2020.01.23 1500 UTC
Wind: from the SE (140 degrees) at 7 MPH (6 KT):0
Visibility: greater than 7 mile(s):0
Temperature: 71 F (22 C)
Dew Point: 66 F (19 C)
Relative Humidity: 83%
Pressure (altimeter): 30.12 in. Hg (1020 hPa)
ob: ROYN 231500Z AUTO 14006KT 9999 NCD 22/19 Q1020
cycle: 15

Station Type Date Time Source
ROYN TAF UTC NOAA

Error!

Example: see airport list